Overview Statistics Trail Chart Weather Telemetry Raw packets
 

This is the latest recevied weather packets stored in our database for station/object KC7RJK-2. If no packets are shown the sender has not sent any weather packets the latest 10 day(s).

<< 6 7 8 9 10 11 12 >>
Time Temp. Humidity Pressure Rain* Wind** Luminosity Snow
1788483206 13.89° C 88% 1009.5 hPa 0.25 mm - - -
1788482605 13.89° C 87% 1009.5 hPa 0 mm - - -
1788482005 14.44° C 87% 1009.6 hPa 0 mm - - -
1788481404 14.44° C 87% 1009.5 hPa 0 mm - - -
1788480806 14.44° C 88% 1009.6 hPa 0 mm - - -
1788480206 14.44° C 88% 1009.6 hPa 0 mm - - -
1788479604 14.44° C 88% 1009.6 hPa 0 mm - - -
1788479005 14.44° C 89% 1009.6 hPa 0 mm - - -
1788478406 14.44° C 88% 1009.7 hPa 0 mm - - -
1788477805 14.44° C 89% 1009.7 hPa 0 mm - - -
1788477206 14.44° C 89% 1009.8 hPa 1.78 mm - - -
1788476605 14.44° C 90% 1010 hPa 1.78 mm - - -
1788476004 14.44° C 92% 1010.1 hPa 4.32 mm - - -
1788475406 13.33° C 90% 1010.2 hPa 5.08 mm - - -
1788474806 13.33° C 90% 1010.3 hPa 5.08 mm - - -
1788474205 12.78° C 89% 1010.3 hPa 5.08 mm - - -
1788473605 13.33° C 87% 1010.6 hPa 5.08 mm - - -
1788473008 14.44° C 85% 1011 hPa 3.81 mm - - -
1788472405 15.56° C 79% 1010.4 hPa 1.52 mm - - -
1788471814 17.22° C 70% 1009.9 hPa 0.76 mm - - -
1788471205 18.33° C 63% 1009.4 hPa 0 mm - - -
1788470604 18.33° C 64% 1009.5 hPa 0 mm - - -
1788470006 18.33° C 62% 1009.5 hPa 0 mm - - -
1788469406 18.33° C 62% 1009.6 hPa 0 mm - - -
1788468804 18.33° C 65% 1009.5 hPa 0 mm - - -

* Rain latest hour (hover to see other rain measurements)
** Current wind speed in m/s (hover to see current wind gust speed)